Observation data for Goodlett on 12/08/2019      Previous  Date       Current Mesonet Observations  Soil Data  Daily Summary Page  Observations in Plain Language
KGDS 080600Z 17008KT 08/02 A2996 RMK A01 T00780022  RH  069%=      5-min Rain = 0
KGDS 080605Z 16008KT 08/02 A2995 RMK A01 T00780022  RH  069%=      5-min Rain = 0
KGDS 080610Z 17007KT 08/02 A2995 RMK A01 T00780022  RH  069%=      5-min Rain = 0
KGDS 080615Z 18008KT 08/02 A2995 RMK A01 T00770022  RH  069%=      5-min Rain = 0
KGDS 080620Z 17008KT 08/02 A2995 RMK A01 T00770022  RH  069%=      5-min Rain = 0
KGDS 080625Z 17008KT 08/02 A2995 RMK A01 T00750021  RH  070%=      5-min Rain = 0
KGDS 080630Z 17007KT 07/02 A2995 RMK A01 T00740021  RH  071%=      5-min Rain = 0
KGDS 080635Z 16008KT 08/02 A2994 RMK A01 T00750022  RH  070%=      5-min Rain = 0
KGDS 080640Z 17008KT 08/02 A2994 RMK A01 T00770022  RH  069%=      5-min Rain = 0
KGDS 080645Z 18009KT 08/02 A2994 RMK A01 T00750021  RH  070%=      5-min Rain = 0
KGDS 080650Z 18011KT 07/02 A2993 RMK A01 T00730021  RH  071%=      5-min Rain = 0
KGDS 080655Z 18012KT 07/02 A2993 RMK A01 T00730022  RH  071%=      5-min Rain = 0
KGDS 080700Z 18012KT 07/02 A2993 RMK A01 T00720022  RH  072%=      5-min Rain = 0
KGDS 080705Z 19012KT 07/02 A2992 RMK A01 T00710022  RH  072%=      5-min Rain = 0
KGDS 080710Z 19014KT 07/02 A2991 RMK A01 T00710023  RH  073%=      5-min Rain = 0
KGDS 080715Z 19013KT 07/02 A2991 RMK A01 T00740023  RH  071%=      5-min Rain = 0
KGDS 080720Z 18012KT 08/02 A2991 RMK A01 T00750023  RH  071%=      5-min Rain = 0
KGDS 080725Z 19011KT 08/02 A299 RMK A01 T00750023  RH  071%=      5-min Rain = 0
KGDS 080730Z 19010KT 07/02 A299 RMK A01 T00740023  RH  072%=      5-min Rain = 0
KGDS 080735Z 18010KT 07/02 A299 RMK A01 T00730024  RH  072%=      5-min Rain = 0
KGDS 080740Z 18010KT 07/02 A299 RMK A01 T00720024  RH  073%=      5-min Rain = 0
KGDS 080745Z 18010KT 07/02 A299 RMK A01 T00720024  RH  073%=      5-min Rain = 0
KGDS 080750Z 18009KT 07/02 A2989 RMK A01 T00710024  RH  073%=      5-min Rain = 0
KGDS 080755Z 19009KT 07/02 A2989 RMK A01 T00680023  RH  074%=      5-min Rain = 0
KGDS 080800Z 19009KT 07/02 A2989 RMK A01 T00660023  RH  075%=      5-min Rain = 0
KGDS 080805Z 19009KT 07/03 A2989 RMK A01 T00710025  RH  074%=      5-min Rain = 0
KGDS 080810Z 19008KT 07/03 A2989 RMK A01 T00740026  RH  073%=      5-min Rain = 0
KGDS 080815Z 19009KT 08/03 A2989 RMK A01 T00770027  RH  072%=      5-min Rain = 0
KGDS 080820Z 19009KT 08/03 A2989 RMK A01 T00790028  RH  072%=      5-min Rain = 0
KGDS 080825Z 19009KT 08/03 A2989 RMK A01 T00820030  RH  071%=      5-min Rain = 0
KGDS 080830Z 20010KT 08/03 A2989 RMK A01 T00830031  RH  071%=      5-min Rain = 0
KGDS 080835Z 20009KT 09/03 A2989 RMK A01 T00850032  RH  071%=      5-min Rain = 0
KGDS 080840Z 20009KT 09/03 A2989 RMK A01 T00860032  RH  070%=      5-min Rain = 0
KGDS 080845Z 20009KT 09/03 A2989 RMK A01 T00850032  RH  070%=      5-min Rain = 0
KGDS 080850Z 20010KT 08/03 A2989 RMK A01 T00840032  RH  071%=      5-min Rain = 0
KGDS 080855Z 20009KT 08/03 A2989 RMK A01 T00820031  RH  072%=      5-min Rain = 0
KGDS 080900Z 21007KT 08/03 A2989 RMK A01 T00780030  RH  073%=      5-min Rain = 0
KGDS 080905Z 22003KT 07/03 A2989 RMK A01 T00740029  RH  074%=      5-min Rain = 0
KGDS 080910Z 21003KT 07/03 A2989 RMK A01 T00740030  RH  075%=      5-min Rain = 0
KGDS 080915Z 21006KT 08/03 A299 RMK A01 T00790031  RH  073%=      5-min Rain = 0
KGDS 080920Z 21008KT 08/03 A2989 RMK A01 T00800030  RH  072%=      5-min Rain = 0
KGDS 080925Z 20007KT 08/03 A2989 RMK A01 T00790029  RH  072%=      5-min Rain = 0
KGDS 080930Z 20008KT 08/03 A2989 RMK A01 T00760028  RH  073%=      5-min Rain = 0
KGDS 080935Z 21007KT 08/03 A2989 RMK A01 T00750028  RH  074%=      5-min Rain = 0
KGDS 080940Z 20007KT 07/03 A2988 RMK A01 T00700027  RH  075%=      5-min Rain = 0
KGDS 080945Z 19008KT 07/03 A2987 RMK A01 T00710028  RH  076%=      5-min Rain = 0
KGDS 080950Z 19009KT 07/03 A2987 RMK A01 T00710028  RH  076%=      5-min Rain = 0
KGDS 080955Z 20009KT 07/03 A2988 RMK A01 T00680028  RH  077%=      5-min Rain = 0
KGDS 081000Z 20008KT 07/03 A2987 RMK A01 T00680028  RH  077%=      5-min Rain = 0
KGDS 081005Z 20009KT 07/03 A2987 RMK A01 T00680028  RH  077%=      5-min Rain = 0
KGDS 081010Z 21008KT 07/03 A2987 RMK A01 T00660027  RH  078%=      5-min Rain = 0
KGDS 081015Z 21007KT 07/03 A2987 RMK A01 T00650028  RH  079%=      5-min Rain = 0
KGDS 081020Z 21007KT 07/03 A2987 RMK A01 T00650029  RH  079%=      5-min Rain = 0
KGDS 081025Z 21007KT 07/03 A2986 RMK A01 T00660030  RH  079%=      5-min Rain = 0
KGDS 081030Z 21006KT 07/03 A2986 RMK A01 T00680031  RH  079%=      5-min Rain = 0
KGDS 081035Z 21006KT 07/03 A2986 RMK A01 T00690031  RH  078%=      5-min Rain = 0
KGDS 081040Z 21007KT 07/03 A2986 RMK A01 T00710033  RH  078%=      5-min Rain = 0
KGDS 081045Z 20007KT 07/04 A2985 RMK A01 T00740035  RH  078%=      5-min Rain = 0
KGDS 081050Z 20009KT 08/04 A2984 RMK A01 T00790036  RH  076%=      5-min Rain = 0
KGDS 081055Z 21010KT 08/04 A2984 RMK A01 T00820036  RH  075%=      5-min Rain = 0
KGDS 081100Z 21010KT 08/04 A2985 RMK A01 T00830037  RH  074%=      5-min Rain = 0
KGDS 081105Z 20010KT 08/04 A2985 RMK A01 T00840037  RH  073%=      5-min Rain = 0
KGDS 081110Z 21008KT 08/04 A2984 RMK A01 T00840036  RH  073%=      5-min Rain = 0
KGDS 081115Z 20007KT 08/04 A2984 RMK A01 T00820036  RH  074%=      5-min Rain = 0
KGDS 081120Z 20007KT 08/04 A2984 RMK A01 T00830036  RH  074%=      5-min Rain = 0
KGDS 081125Z 21008KT 08/04 A2984 RMK A01 T00840036  RH  073%=      5-min Rain = 0
KGDS 081130Z 20008KT 08/04 A2984 RMK A01 T00830036  RH  073%=      5-min Rain = 0
KGDS 081135Z 21009G14KT 09/04 A2983 RMK A01 T00870036  RH  072%=      5-min Rain = 0
KGDS 081140Z 21011KT 09/04 A2983 RMK A01 T00900035  RH  070%=      5-min Rain = 0
KGDS 081145Z 20010KT 09/04 A2982 RMK A01 T00860035  RH  072%=      5-min Rain = 0
KGDS 081150Z 21009KT 08/04 A2982 RMK A01 T00840035  RH  073%=      5-min Rain = 0
KGDS 081155Z 21008KT 08/04 A2982 RMK A01 T00820036  RH  074%=      5-min Rain = 0
KGDS 081200Z 22009KT 08/04 A2983 RMK A01 T00820036  RH  074%=      5-min Rain = 0
KGDS 081205Z 22012KT 09/04 A2982 RMK A01 T00870037  RH  072%=      5-min Rain = 0
KGDS 081210Z 22012KT 09/04 A2982 RMK A01 T00910038  RH  071%=      5-min Rain = 0
KGDS 081215Z 22012KT 09/04 A2982 RMK A01 T00920038  RH  070%=      5-min Rain = 0
KGDS 081220Z 22011KT 09/04 A2982 RMK A01 T00920038  RH  070%=      5-min Rain = 0
KGDS 081225Z 22012KT 09/04 A2982 RMK A01 T00910038  RH  070%=      5-min Rain = 0
KGDS 081230Z 22012KT 09/04 A2983 RMK A01 T00910038  RH  070%=      5-min Rain = 0
KGDS 081235Z 22011KT 09/04 A2983 RMK A01 T00920038  RH  070%=      5-min Rain = 0
KGDS 081240Z 21012KT 09/04 A2983 RMK A01 T00910038  RH  071%=      5-min Rain = 0
KGDS 081245Z 21012KT 09/04 A2983 RMK A01 T00900038  RH  071%=      5-min Rain = 0
KGDS 081250Z 21012KT 09/04 A2983 RMK A01 T00900038  RH  071%=      5-min Rain = 0
KGDS 081255Z 21011KT 09/04 A2983 RMK A01 T00890037  RH  071%=      5-min Rain = 0
KGDS 081300Z 21010KT 09/04 A2983 RMK A01 T00860037  RH  072%=      5-min Rain = 0
KGDS 081305Z 20009KT 08/04 A2983 RMK A01 T00830036  RH  074%=      5-min Rain = 0
KGDS 081310Z 20009KT 08/04 A2983 RMK A01 T00820036  RH  074%=      5-min Rain = 0
KGDS 081315Z 20008KT 08/04 A2983 RMK A01 T00810036  RH  075%=      5-min Rain = 0
KGDS 081320Z 20008KT 08/04 A2983 RMK A01 T00790036  RH  076%=      5-min Rain = 0
KGDS 081325Z 20007KT 08/04 A2983 RMK A01 T00790036  RH  076%=      5-min Rain = 0
KGDS 081330Z 20007KT 08/04 A2982 RMK A01 T00790036  RH  076%=      5-min Rain = 0
KGDS 081335Z 20006KT 08/04 A2982 RMK A01 T00780037  RH  077%=      5-min Rain = 0
KGDS 081340Z 21006KT 08/04 A2982 RMK A01 T00770037  RH  077%=      5-min Rain = 0
KGDS 081345Z 20007KT 08/04 A2982 RMK A01 T00770038  RH  078%=      5-min Rain = 0
KGDS 081350Z 21007KT 08/04 A2982 RMK A01 T00790038  RH  077%=      5-min Rain = 0
KGDS 081355Z 21007KT 08/04 A2982 RMK A01 T00790038  RH  077%=      5-min Rain = 0
KGDS 081400Z 21007KT 08/04 A2982 RMK A01 T00780039  RH  078%=      5-min Rain = 0
KGDS 081405Z 20007KT 08/04 A2981 RMK A01 T00830041  RH  076%=      5-min Rain = 0
KGDS 081410Z 21008KT 09/04 A2981 RMK A01 T00900042  RH  074%=      5-min Rain = 0
KGDS 081415Z 20009KT 10/04 A2981 RMK A01 T00950044  RH  072%=      5-min Rain = 0
KGDS 081420Z 20009KT 10/04 A2981 RMK A01 T00990044  RH  070%=      5-min Rain = 0
KGDS 081425Z 20008KT 10/05 A2981 RMK A01 T01030045  RH  069%=      5-min Rain = 0
KGDS 081430Z 20008KT 11/05 A2981 RMK A01 T01050046  RH  068%=      5-min Rain = 0
KGDS 081435Z 21008KT 11/05 A2982 RMK A01 T01060046  RH  068%=      5-min Rain = 0
KGDS 081440Z 21009KT 11/05 A2981 RMK A01 T01080046  RH  067%=      5-min Rain = 0
KGDS 081445Z 21009KT 11/05 A2981 RMK A01 T01090046  RH  067%=      5-min Rain = 0
KGDS 081450Z 21010KT 11/05 A2981 RMK A01 T01110046  RH  066%=      5-min Rain = 0
KGDS 081455Z 21009KT 11/05 A2981 RMK A01 T01120046  RH  065%=      5-min Rain = 0
KGDS 081500Z 21009KT 11/05 A2981 RMK A01 T01130046  RH  065%=      5-min Rain = 0
KGDS 081505Z 21010KT 11/05 A2981 RMK A01 T01130046  RH  065%=      5-min Rain = 0
KGDS 081510Z 21009KT 12/05 A2981 RMK A01 T01150047  RH  065%=      5-min Rain = 0
KGDS 081515Z 21010KT 12/05 A2981 RMK A01 T01170048  RH  064%=      5-min Rain = 0
KGDS 081520Z 20010KT 12/05 A2981 RMK A01 T01190048  RH  063%=      5-min Rain = 0
KGDS 081525Z 20010KT 12/05 A2981 RMK A01 T01210048  RH  062%=      5-min Rain = 0
KGDS 081530Z 20010KT 12/05 A298 RMK A01 T01230048  RH  062%=      5-min Rain = 0
KGDS 081535Z 20010KT 13/05 A298 RMK A01 T01270050  RH  061%=      5-min Rain = 0
KGDS 081540Z 21010KT 13/05 A298 RMK A01 T01300051  RH  060%=      5-min Rain = 0
KGDS 081545Z 21011KT 13/05 A298 RMK A01 T01340050  RH  058%=      5-min Rain = 0
KGDS 081550Z 21010KT 14/05 A298 RMK A01 T01360050  RH  058%=      5-min Rain = 0
KGDS 081555Z 21010KT 14/05 A298 RMK A01 T01400052  RH  057%=      5-min Rain = 0
KGDS 081600Z 21011KT 14/05 A298 RMK A01 T01430051  RH  055%=      5-min Rain = 0
KGDS 081605Z 22012KT 15/05 A298 RMK A01 T01450051  RH  054%=      5-min Rain = 0
KGDS 081610Z 22013KT 15/05 A2981 RMK A01 T01470052  RH  054%=      5-min Rain = 0
KGDS 081615Z 21013KT 15/05 A2981 RMK A01 T01500053  RH  053%=      5-min Rain = 0
KGDS 081620Z 21012KT 15/05 A298 RMK A01 T01520053  RH  053%=      5-min Rain = 0
KGDS 081625Z 21011KT 15/05 A298 RMK A01 T01530053  RH  052%=      5-min Rain = 0
KGDS 081630Z 21010KT 16/05 A298 RMK A01 T01550054  RH  052%=      5-min Rain = 0
KGDS 081635Z 21010KT 16/05 A298 RMK A01 T01570054  RH  052%=      5-min Rain = 0
KGDS 081640Z 21011KT 16/06 A298 RMK A01 T01610055  RH  050%=      5-min Rain = 0
KGDS 081645Z 22011KT 16/05 A298 RMK A01 T01640054  RH  049%=      5-min Rain = 0
KGDS 081650Z 22011KT 17/06 A298 RMK A01 T01660055  RH  049%=      5-min Rain = 0
KGDS 081655Z 22011KT 17/06 A298 RMK A01 T01710056  RH  048%=      5-min Rain = 0
KGDS 081700Z 22012KT 18/06 A2979 RMK A01 T01750056  RH  047%=      5-min Rain = 0
KGDS 081705Z 22013KT 18/06 A2978 RMK A01 T01760055  RH  046%=      5-min Rain = 0
KGDS 081710Z 21012KT 18/06 A2978 RMK A01 T01810057  RH  045%=      5-min Rain = 0
KGDS 081715Z 21012KT 18/06 A2978 RMK A01 T01840058  RH  044%=      5-min Rain = 0
KGDS 081720Z 22014G20KT 19/06 A2978 RMK A01 T01890057  RH  043%=      5-min Rain = 0
KGDS 081725Z 22016KT 19/06 A2978 RMK A01 T01930055  RH  041%=      5-min Rain = 0
KGDS 081730Z 22015KT 20/06 A2978 RMK A01 T01950055  RH  041%=      5-min Rain = 0
KGDS 081735Z 23015KT 20/06 A2977 RMK A01 T01960055  RH  040%=      5-min Rain = 0
KGDS 081740Z 23015KT 20/06 A2977 RMK A01 T01980055  RH  040%=      5-min Rain = 0
KGDS 081745Z 23014G21KT 20/06 A2976 RMK A01 T01990055  RH  040%=      5-min Rain = 0
KGDS 081750Z 24015KT 20/05 A2976 RMK A01 T01990054  RH  039%=      5-min Rain = 0
KGDS 081755Z 24015KT 20/05 A2976 RMK A01 T02010053  RH  039%=      5-min Rain = 0
KGDS 081800Z 24015KT 20/05 A2976 RMK A01 T02030053  RH  038%=      5-min Rain = 0
KGDS 081805Z 24013G18KT 20/05 A2976 RMK A01 T02040054  RH  038%=      5-min Rain = 0
KGDS 081810Z 24013KT 21/05 A2976 RMK A01 T02060054  RH  038%=      5-min Rain = 0
KGDS 081815Z 24012G18KT 21/06 A2976 RMK A01 T02090055  RH  037%=      5-min Rain = 0
KGDS 081820Z 24018KT 21/05 A2975 RMK A01 T02120048  RH  035%=      5-min Rain = 0
KGDS 081825Z 24017KT 21/05 A2974 RMK A01 T02130048  RH  035%=      5-min Rain = 0
KGDS 081830Z 24017G22KT 22/05 A2974 RMK A01 T02160049  RH  034%=      5-min Rain = 0
KGDS 081835Z 24017KT 22/05 A2973 RMK A01 T02170048  RH  034%=      5-min Rain = 0
KGDS 081840Z 24017KT 22/05 A2973 RMK A01 T02160048  RH  034%=      5-min Rain = 0
KGDS 081845Z 24016G21KT 22/05 A2973 RMK A01 T02160047  RH  034%=      5-min Rain = 0
KGDS 081850Z 24015KT 22/05 A2972 RMK A01 T02180049  RH  034%=      5-min Rain = 0
KGDS 081855Z 24015G20KT 22/05 A2972 RMK A01 T02190051  RH  034%=      5-min Rain = 0
KGDS 081900Z 24017KT 22/05 A2971 RMK A01 T02160050  RH  034%=      5-min Rain = 0
KGDS 081905Z 24015KT 22/05 A2971 RMK A01 T02160050  RH  035%=      5-min Rain = 0
KGDS 081910Z 24013KT 22/05 A2971 RMK A01 T02190052  RH  034%=      5-min Rain = 0
KGDS 081915Z 23014KT 22/05 A2971 RMK A01 T02200052  RH  034%=      5-min Rain = 0
KGDS 081920Z 22012G17KT 22/05 A2971 RMK A01 T02220052  RH  034%=      5-min Rain = 0
KGDS 081925Z 23012KT 23/05 A297 RMK A01 T02260054  RH  033%=      5-min Rain = 0
KGDS 081930Z 23010KT 23/05 A297 RMK A01 T02280054  RH  033%=      5-min Rain = 0
KGDS 081935Z 23013G18KT 23/05 A297 RMK A01 T02280053  RH  033%=      5-min Rain = 0
KGDS 081940Z 23015G20KT 23/05 A297 RMK A01 T02330053  RH  032%=      5-min Rain = 0
KGDS 081945Z 23015KT 24/05 A297 RMK A01 T02370051  RH  031%=      5-min Rain = 0
KGDS 081950Z 24013G18KT 24/05 A2969 RMK A01 T02380050  RH  030%=      5-min Rain = 0
KGDS 081955Z 25014KT 24/05 A2969 RMK A01 T02360049  RH  030%=      5-min Rain = 0
KGDS 082000Z 25013G18KT 24/05 A2969 RMK A01 T02370049  RH  030%=      5-min Rain = 0
KGDS 082005Z 24020G26KT 24/05 A2969 RMK A01 T02420045  RH  028%=      5-min Rain = 0
KGDS 082010Z 25022G29KT 24/04 A2968 RMK A01 T02440041  RH  027%=      5-min Rain = 0
KGDS 082015Z 25017G24KT 24/04 A2968 RMK A01 T02430041  RH  028%=      5-min Rain = 0
KGDS 082020Z 25017KT 25/04 A2968 RMK A01 T02450043  RH  028%=      5-min Rain = 0
KGDS 082025Z 24019G26KT 25/04 A2968 RMK A01 T02470041  RH  027%=      5-min Rain = 0
KGDS 082030Z 24020G25KT 25/04 A2967 RMK A01 T02480040  RH  027%=      5-min Rain = 0
KGDS 082035Z 24018G26KT 25/04 A2967 RMK A01 T02490040  RH  026%=      5-min Rain = 0
KGDS 082040Z 24019G25KT 25/04 A2967 RMK A01 T02500039  RH  026%=      5-min Rain = 0
KGDS 082045Z 25019G26KT 25/04 A2967 RMK A01 T02490039  RH  026%=      5-min Rain = 0
KGDS 082050Z 24015G23KT 25/04 A2967 RMK A01 T02490043  RH  027%=      5-min Rain = 0
KGDS 082055Z 24021G29KT 25/04 A2967 RMK A01 T02480037  RH  026%=      5-min Rain = 0
KGDS 082100Z 24022G29KT 25/04 A2967 RMK A01 T02480036  RH  026%=      5-min Rain = 0
KGDS 082105Z 24020G25KT 25/04 A2967 RMK A01 T02470037  RH  026%=      5-min Rain = 0
KGDS 082110Z 24018KT 25/04 A2967 RMK A01 T02470038  RH  026%=      5-min Rain = 0
KGDS 082115Z 24019KT 25/04 A2967 RMK A01 T02480040  RH  026%=      5-min Rain = 0
KGDS 082120Z 24022G29KT 25/04 A2967 RMK A01 T02480040  RH  027%=      5-min Rain = 0
KGDS 082125Z 24019G25KT 25/04 A2967 RMK A01 T02480041  RH  027%=      5-min Rain = 0
KGDS 082130Z 24018G23KT 25/04 A2966 RMK A01 T02470041  RH  027%=      5-min Rain = 0
KGDS 082135Z 24017G22KT 25/04 A2966 RMK A01 T02460041  RH  027%=      5-min Rain = 0
KGDS 082140Z 24014G19KT 25/04 A2966 RMK A01 T02450043  RH  027%=      5-min Rain = 0
KGDS 082145Z 24015G20KT 25/04 A2966 RMK A01 T02450041  RH  027%=      5-min Rain = 0
KGDS 082150Z 24016KT 25/04 A2966 RMK A01 T02460041  RH  027%=      5-min Rain = 0
KGDS 082155Z 24017G22KT 25/04 A2966 RMK A01 T02460041  RH  027%=      5-min Rain = 0
KGDS 082200Z 24015G20KT 25/04 A2966 RMK A01 T02460042  RH  027%=      5-min Rain = 0
KGDS 082205Z 24017KT 25/04 A2965 RMK A01 T02460042  RH  027%=      5-min Rain = 0
KGDS 082210Z 24019G25KT 25/04 A2965 RMK A01 T02460042  RH  027%=      5-min Rain = 0
KGDS 082215Z 24017G24KT 25/04 A2965 RMK A01 T02460042  RH  027%=      5-min Rain = 0
KGDS 082220Z 24017KT 25/04 A2965 RMK A01 T02450042  RH  027%=      5-min Rain = 0
KGDS 082225Z 24018G25KT 24/04 A2965 RMK A01 T02440042  RH  027%=      5-min Rain = 0
KGDS 082230Z 24015KT 24/04 A2965 RMK A01 T02420043  RH  028%=      5-min Rain = 0
KGDS 082235Z 24014KT 24/04 A2965 RMK A01 T02400044  RH  028%=      5-min Rain = 0
KGDS 082240Z 24013KT 24/04 A2964 RMK A01 T02380044  RH  029%=      5-min Rain = 0
KGDS 082245Z 25013KT 24/05 A2965 RMK A01 T02360045  RH  029%=      5-min Rain = 0
KGDS 082250Z 25011KT 23/05 A2966 RMK A01 T02340045  RH  030%=      5-min Rain = 0
KGDS 082255Z 25009KT 23/05 A2966 RMK A01 T02300046  RH  031%=      5-min Rain = 0
KGDS 082300Z 25009G14KT 23/05 A2966 RMK A01 T02280046  RH  031%=      5-min Rain = 0
KGDS 082305Z 25010KT 23/05 A2966 RMK A01 T02270046  RH  031%=      5-min Rain = 0
KGDS 082310Z 25010KT 23/05 A2966 RMK A01 T02250046  RH  032%=      5-min Rain = 0
KGDS 082315Z 24011KT 22/05 A2966 RMK A01 T02210046  RH  033%=      5-min Rain = 0
KGDS 082320Z 24012KT 22/05 A2966 RMK A01 T02220047  RH  033%=      5-min Rain = 0
KGDS 082325Z 25011KT 22/05 A2967 RMK A01 T02200048  RH  033%=      5-min Rain = 0
KGDS 082330Z 24011KT 22/05 A2967 RMK A01 T02180049  RH  034%=      5-min Rain = 0
KGDS 082335Z 24010KT 21/05 A2967 RMK A01 T02140049  RH  035%=      5-min Rain = 0
KGDS 082340Z 24011KT 21/05 A2967 RMK A01 T02140049  RH  035%=      5-min Rain = 0
KGDS 082345Z 24010KT 21/05 A2967 RMK A01 T02100050  RH  036%=      5-min Rain = 0
KGDS 082350Z 24010KT 21/05 A2967 RMK A01 T02090050  RH  036%=      5-min Rain = 0
KGDS 082355Z 24009KT 20/05 A2967 RMK A01 T02030050  RH  037%=      5-min Rain = 0
KGDS 090000Z 24010KT 20/05 A2966 RMK A01 T02030050  RH  037%=      5-min Rain = 0
KGDS 090005Z 24010KT 21/05 A2966 RMK A01 T02060051  RH  037%=      5-min Rain = 0
KGDS 090010Z 24009KT 20/05 A2966 RMK A01 T02030051  RH  038%=      5-min Rain = 0
KGDS 090015Z 24009G15KT 20/05 A2966 RMK A01 T02010051  RH  038%=      5-min Rain = 0
KGDS 090020Z 24009KT 20/05 A2966 RMK A01 T02000051  RH  039%=      5-min Rain = 0
KGDS 090025Z 24009KT 20/05 A2966 RMK A01 T01990052  RH  039%=      5-min Rain = 0
KGDS 090030Z 23009KT 20/05 A2966 RMK A01 T01990052  RH  039%=      5-min Rain = 0
KGDS 090035Z 23009KT 20/05 A2967 RMK A01 T01970052  RH  039%=      5-min Rain = 0
KGDS 090040Z 23008KT 19/05 A2967 RMK A01 T01920052  RH  041%=      5-min Rain = 0
KGDS 090045Z 23009KT 20/05 A2967 RMK A01 T01970051  RH  039%=      5-min Rain = 0
KGDS 090050Z 23010KT 20/05 A2967 RMK A01 T02000052  RH  039%=      5-min Rain = 0
KGDS 090055Z 23009KT 20/05 A2967 RMK A01 T02010052  RH  038%=      5-min Rain = 0
KGDS 090100Z 23009KT 20/05 A2967 RMK A01 T01990053  RH  039%=      5-min Rain = 0
KGDS 090105Z 23009KT 20/05 A2967 RMK A01 T01990054  RH  039%=      5-min Rain = 0
KGDS 090110Z 23013KT 20/05 A2966 RMK A01 T02020054  RH  039%=      5-min Rain = 0
KGDS 090115Z 23015KT 21/05 A2966 RMK A01 T02070054  RH  038%=      5-min Rain = 0
KGDS 090120Z 23017G22KT 21/05 A2966 RMK A01 T02100054  RH  037%=      5-min Rain = 0
KGDS 090125Z 23018G23KT 21/05 A2966 RMK A01 T02110054  RH  037%=      5-min Rain = 0
KGDS 090130Z 23018G27KT 21/05 A2966 RMK A01 T02130054  RH  036%=      5-min Rain = 0
KGDS 090135Z 24019G24KT 22/05 A2966 RMK A01 T02150054  RH  036%=      5-min Rain = 0
KGDS 090140Z 24019G25KT 22/05 A2966 RMK A01 T02170054  RH  035%=      5-min Rain = 0
KGDS 090145Z 24020G25KT 22/05 A2966 RMK A01 T02170054  RH  035%=      5-min Rain = 0
KGDS 090150Z 25019G24KT 22/05 A2967 RMK A01 T02170054  RH  035%=      5-min Rain = 0
KGDS 090155Z 25019G25KT 22/06 A2967 RMK A01 T02180055  RH  035%=      5-min Rain = 0
KGDS 090200Z 24017G23KT 22/06 A2967 RMK A01 T02150055  RH  036%=      5-min Rain = 0
KGDS 090205Z 24017G22KT 22/06 A2967 RMK A01 T02150055  RH  036%=      5-min Rain = 0
KGDS 090210Z 25016KT 21/06 A2967 RMK A01 T02120055  RH  037%=      5-min Rain = 0
KGDS 090215Z 25015KT 21/06 A2967 RMK A01 T02120055  RH  037%=      5-min Rain = 0
KGDS 090220Z 24015G21KT 21/06 A2967 RMK A01 T02110055  RH  037%=      5-min Rain = 0
KGDS 090225Z 24015G20KT 21/06 A2967 RMK A01 T02090055  RH  037%=      5-min Rain = 0
KGDS 090230Z 24015G20KT 21/06 A2967 RMK A01 T02090055  RH  037%=      5-min Rain = 0
KGDS 090235Z 24014KT 21/06 A2967 RMK A01 T02060055  RH  038%=      5-min Rain = 0
KGDS 090240Z 24016KT 21/06 A2967 RMK A01 T02060055  RH  038%=      5-min Rain = 0
KGDS 090245Z 24016G23KT 21/06 A2967 RMK A01 T02060055  RH  038%=      5-min Rain = 0
KGDS 090250Z 24018G25KT 21/06 A2967 RMK A01 T02070055  RH  038%=      5-min Rain = 0
KGDS 090255Z 24019G24KT 21/06 A2967 RMK A01 T02060055  RH  038%=      5-min Rain = 0
KGDS 090300Z 24019G24KT 21/06 A2967 RMK A01 T02060055  RH  038%=      5-min Rain = 0
KGDS 090305Z 24019G24KT 21/06 A2966 RMK A01 T02050055  RH  038%=      5-min Rain = 0
KGDS 090310Z 25018G26KT 21/06 A2966 RMK A01 T02050055  RH  038%=      5-min Rain = 0
KGDS 090315Z 24017G22KT 20/06 A2967 RMK A01 T02020055  RH  039%=      5-min Rain = 0
KGDS 090320Z 24016G22KT 20/06 A2967 RMK A01 T02010055  RH  039%=      5-min Rain = 0
KGDS 090325Z 24016G23KT 20/06 A2967 RMK A01 T01980055  RH  040%=      5-min Rain = 0
KGDS 090330Z 24017G23KT 20/06 A2966 RMK A01 T01960055  RH  041%=      5-min Rain = 0
KGDS 090335Z 24019G25KT 20/06 A2966 RMK A01 T01960055  RH  041%=      5-min Rain = 0
KGDS 090340Z 25016G21KT 19/06 A2966 RMK A01 T01940056  RH  041%=      5-min Rain = 0
KGDS 090345Z 24015KT 19/06 A2966 RMK A01 T01910056  RH  042%=      5-min Rain = 0
KGDS 090350Z 25015KT 19/06 A2966 RMK A01 T01900055  RH  042%=      5-min Rain = 0
KGDS 090355Z 25015KT 19/06 A2966 RMK A01 T01900055  RH  042%=      5-min Rain = 0
KGDS 090400Z 25015G20KT 19/06 A2966 RMK A01 T01880055  RH  043%=      5-min Rain = 0
KGDS 090405Z 25017G23KT 19/06 A2967 RMK A01 T01880055  RH  043%=      5-min Rain = 0
KGDS 090410Z 25018KT 19/06 A2966 RMK A01 T01870055  RH  043%=      5-min Rain = 0
KGDS 090415Z 25018G25KT 19/05 A2966 RMK A01 T01860053  RH  043%=      5-min Rain = 0
KGDS 090420Z 25021G28KT 19/05 A2965 RMK A01 T01890049  RH  041%=      5-min Rain = 0
KGDS 090425Z 25021G28KT 19/05 A2965 RMK A01 T01910046  RH  039%=      5-min Rain = 0
KGDS 090430Z 25019G25KT 19/04 A2965 RMK A01 T01890044  RH  039%=      5-min Rain = 0
KGDS 090435Z 25021G26KT 19/04 A2965 RMK A01 T01900041  RH  038%=      5-min Rain = 0
KGDS 090440Z 26019G26KT 19/04 A2966 RMK A01 T01900039  RH  038%=      5-min Rain = 0
KGDS 090445Z 25019G25KT 19/04 A2966 RMK A01 T01880037  RH  037%=      5-min Rain = 0
KGDS 090450Z 26018G24KT 19/04 A2966 RMK A01 T01880035  RH  037%=      5-min Rain = 0
KGDS 090455Z 26016G21KT 19/03 A2967 RMK A01 T01860034  RH  037%=      5-min Rain = 0
KGDS 090500Z 27015G22KT 18/03 A2967 RMK A01 T01840034  RH  038%=      5-min Rain = 0
KGDS 090505Z 27015G20KT 18/03 A2967 RMK A01 T01820033  RH  038%=      5-min Rain = 0
KGDS 090510Z 26017KT 18/03 A2967 RMK A01 T01810032  RH  038%=      5-min Rain = 0
KGDS 090515Z 25017KT 18/03 A2967 RMK A01 T01800032  RH  038%=      5-min Rain = 0
KGDS 090520Z 25017G22KT 18/03 A2967 RMK A01 T01790032  RH  038%=      5-min Rain = 0
KGDS 090525Z 25018KT 18/03 A2967 RMK A01 T01800031  RH  038%=      5-min Rain = 0
KGDS 090530Z 26016G23KT 18/03 A2967 RMK A01 T01790032  RH  038%=      5-min Rain = 0
KGDS 090535Z 26017G25KT 18/03 A2967 RMK A01 T01790032  RH  038%=      5-min Rain = 0
KGDS 090540Z 26016G21KT 18/03 A2967 RMK A01 T01770032  RH  039%=      5-min Rain = 0
KGDS 090545Z 25017G23KT 18/03 A2967 RMK A01 T01750032  RH  039%=      5-min Rain = 0
KGDS 090550Z 26016G22KT 18/03 A2967 RMK A01 T01750033  RH  039%=      5-min Rain = 0
KGDS 090555Z 26015G21KT 17/03 A2967 RMK A01 T01730033  RH  040%=      5-min Rain = 0

Page generated in 0.0176 seconds.